M I D A S
Marine Information and Data Acquisition System
Tripno 524 of the Zeeleeuw from 2003-06-25 06:54:58 to 2003-06-25 11:03:42
Back to CruiseResearch ActivitiesStationsMapUnderway DataData graphs

EquipmentUnitsComment
TimeDGPSUTC
LatitudeDGPSDM.mWGS84
LongitudeDGPSDM.mWGS84
TemperatureSBE03/SBE38deg celciusITS90
ConductivitySBE21S/mITS90
SalinitySBE21 Practical Salinity Units
ChlorophylAChelsea fluorimeterg/lCalibrated in Aceton
Missing or incorrect values are displayed as -999
Sea surface data collected by the RV Zeeleeuw from 2003-06-25 06:54:58 to 2003-06-25 11:03:42
Time Latitude Longitude Temperature Conductivity Salinity ChlorophylA
2003-06-25 06:56:04 51°13.62 2°56.05 49.372576 5.104315 34.256397 -0.74754
2003-06-25 06:57:06 51°13.64 2°55.97 46.905358 5.103787 34.256015 -0.781249
2003-06-25 06:58:06 51°13.66 2°55.86 47.903723 5.103154 34.255864 -0.74754
2003-06-25 06:59:02 51°13.68 2°55.78 48.604303 5.102626 34.255995 -0.781249
2003-06-25 07:00:04 51°13.68 2°55.75 46.963243 5.102204 34.256923 -0.74754
2003-06-25 07:01:02 51°13.71 2°55.76 43.120431 5.101465 34.255977 -0.781249
2003-06-25 07:02:02 51°13.77 2°55.7 45.716521 5.101043 34.255363 -0.781249
2003-06-25 07:03:00 51°13.84 2°55.62 41.327308 5.100304 34.255445 -0.814958
2003-06-25 07:04:02 51°13.91 2°55.57 42.132421 5.099882 34.255345 -0.781249
2003-06-25 07:05:02 51°14 2°55.51 43.053089 5.099354 34.255992 -0.74754
2003-06-25 07:06:00 51°14.09 2°55.44 41.885582 5.098721 34.255329 -0.781249
2003-06-25 07:07:02 51°14.2 2°55.34 41.508858 5.098298 34.256258 -0.71383
2003-06-25 07:08:02 51°14.3 2°55.19 32.413326 5.097876 34.256159 -0.781249
2003-06-25 07:09:02 51°14.41 2°54.99 36.816405 5.096926 34.25259 -0.781249
2003-06-25 07:10:02 51°14.57 2°54.82 36.78495 5.096821 34.255911 -0.74754
2003-06-25 07:11:02 51°14.74 2°54.64 36.491163 5.096082 34.253936 -0.74754
2003-06-25 07:12:02 51°14.92 2°54.46 37.454921 5.095554 34.253555 -0.814958
2003-06-25 07:13:02 51°15.1 2°54.27 38.932082 5.09566 34.257442 -0.781249
2003-06-25 07:14:02 51°15.29 2°54.07 39.21781 5.094815 34.255185 -0.74754
2003-06-25 07:15:02 51°15.48 2°53.87 39.043325 5.09471 34.257479 -0.781249
2003-06-25 07:16:02 51°15.68 2°53.67 38.902641 5.094288 34.25738 -0.74754
2003-06-25 07:17:00 51°15.88 2°53.51 37.865611 5.093549 34.255405 -0.781249
2003-06-25 07:18:02 51°16.1 2°53.35 35.628984 5.092915 34.254227 -0.781249
2003-06-25 07:19:02 51°16.31 2°53.19 38.689623 5.092599 34.255442 -0.781249
2003-06-25 07:20:02 51°16.52 2°53 37.572833 5.092177 34.254828 -0.781249
2003-06-25 07:21:02 51°16.72 2°52.82 38.501494 5.091754 34.254215 -0.74754
2003-06-25 07:22:00 51°16.91 2°52.65 37.808903 5.091754 34.257824 -0.781249
2003-06-25 07:23:02 51°17.12 2°52.47 36.419764 5.091332 34.257726 -0.781249
2003-06-25 07:24:02 51°17.32 2°52.29 36.297076 5.09091 34.257113 -0.781249
2003-06-25 07:25:00 51°17.48 2°52.07 38.394446 5.090593 34.25833 -0.781249
2003-06-25 07:26:02 51°17.62 2°51.77 37.834661 5.090382 34.258281 -0.781249
2003-06-25 07:27:02 51°17.74 2°51.47 37.927188 5.090277 34.260062 -0.781249
2003-06-25 07:28:02 51°17.88 2°51.18 37.85151 5.089643 34.259401 -0.781249
2003-06-25 07:29:02 51°18.01 2°50.88 37.953896 5.089116 34.257474 -0.781249
2003-06-25 07:30:02 51°18.14 2°50.59 36.678076 5.088693 34.257377 -0.781249
2003-06-25 07:31:02 51°18.27 2°50.29 34.363385 5.088377 34.257562 -0.814958
2003-06-25 07:32:02 51°18.41 2°50 37.051525 5.087955 34.256949 -0.814958
2003-06-25 07:33:02 51°18.54 2°49.7 35.478114 5.088166 34.260611 -0.74754
2003-06-25 07:34:02 51°18.67 2°49.42 37.656355 5.087638 34.258683 -0.74754
2003-06-25 07:35:02 51°18.81 2°49.12 39.099486 5.08711 34.256756 -0.814958
2003-06-25 07:36:00 51°18.94 2°48.84 37.945292 5.086794 34.256942 -0.781249
2003-06-25 07:37:02 51°19.08 2°48.54 37.239091 5.087005 34.260604 -0.781249
2003-06-25 07:38:02 51°19.21 2°48.24 36.539473 5.086794 34.261073 -0.74754
2003-06-25 07:39:00 51°19.35 2°47.95 36.722325 5.08616 34.258863 -0.781249
2003-06-25 07:40:02 51°19.49 2°47.63 35.660442 5.08616 34.261445 -0.74754
2003-06-25 07:41:02 51°19.62 2°47.33 35.31592 5.085633 34.260034 -0.781249
2003-06-25 07:42:02 51°19.76 2°47.03 36.63701 5.08521 34.258905 -0.814958
2003-06-25 07:43:02 51°19.9 2°46.72 36.476915 5.08521 34.261488 -0.74754
2003-06-25 07:44:02 51°20.04 2°46.42 37.39574 5.084894 34.261158 -0.814958
2003-06-25 07:45:02 51°20.09 2°46.08 37.768797 5.084788 34.261909 -0.781249
2003-06-25 07:46:02 51°20.13 2°45.72 36.503592 5.084366 34.261814 -0.74754
2003-06-25 07:47:00 51°20.17 2°45.38 36.831143 5.084261 34.263082 -0.814958
2003-06-25 07:48:02 51°20.22 2°45.01 37.103909 5.083944 34.263269 -0.781249
2003-06-25 07:49:02 51°20.26 2°44.65 37.201529 5.083733 34.263739 -0.71383
2003-06-25 07:50:02 51°20.31 2°44.29 36.903143 5.083627 34.265007 -0.781249
2003-06-25 07:51:00 51°20.36 2°43.94 37.296011 5.083416 34.266511 -0.814958
2003-06-25 07:52:02 51°20.41 2°43.56 36.513002 5.0831 34.265664 -0.781249
2003-06-25 07:53:02 51°20.45 2°43.2 36.703003 5.082783 34.265852 -0.814958
2003-06-25 07:54:02 51°20.48 2°42.83 36.042938 5.082783 34.267404 -0.74754
2003-06-25 07:55:02 51°20.49 2°42.47 35.9398 5.082466 34.267592 -0.814958
2003-06-25 07:56:02 51°20.5 2°42.1 36.372811 5.082255 34.269614 -0.814958
2003-06-25 07:57:02 51°20.5 2°41.74 35.977178 5.082044 34.269567 -0.781249
2003-06-25 07:58:00 51°20.51 2°41.39 35.173921 5.081833 34.26952 -0.781249
2003-06-25 07:59:02 51°20.52 2°41.02 34.27351 5.081622 34.269473 -0.781249
2003-06-25 08:00:02 51°20.53 2°40.66 37.211822 5.081305 34.269661 -0.74754
2003-06-25 08:01:02 51°20.54 2°40.3 36.342318 5.081094 34.270132 -0.74754
2003-06-25 08:02:02 51°20.52 2°39.94 38.025913 5.0812 34.27352 -0.781249
2003-06-25 08:03:02 51°20.38 2°39.67 35.462597 5.080883 34.271638 -0.814958
2003-06-25 08:04:02 51°20.24 2°39.39 36.534219 5.080778 34.273426 -0.71383
2003-06-25 08:05:02 51°20.1 2°39.11 36.226479 5.080461 34.273615 -0.74754
2003-06-25 08:06:02 51°19.96 2°38.82 35.805564 5.080356 34.273333 -0.781249
2003-06-25 08:07:02 51°19.82 2°38.54 36.737144 5.080356 34.274369 -0.781249
2003-06-25 08:08:02 51°19.68 2°38.26 34.790593 5.080144 34.27484 -0.781249
2003-06-25 08:09:02 51°19.54 2°37.98 35.976524 5.079933 34.275829 -0.74754
2003-06-25 08:10:02 51°19.4 2°37.71 35.367487 5.079722 34.274747 -0.781249
2003-06-25 08:11:02 51°19.26 2°37.44 35.182368 5.079406 34.274936 -0.781249
2003-06-25 08:12:02 51°19.12 2°37.17 35.838948 5.079195 34.274372 -0.71383
2003-06-25 08:13:00 51°18.98 2°36.91 35.083418 5.079195 34.27748 -0.781249
2003-06-25 08:14:02 51°18.84 2°36.63 36.106199 5.078984 34.276916 -0.781249
2003-06-25 08:15:00 51°18.7 2°36.38 36.083399 5.078772 34.276351 -0.781249
2003-06-25 08:16:02 51°18.5 2°36.25 36.461397 5.078667 34.279178 -0.74754
2003-06-25 08:17:02 51°18.32 2°36.47 36.242759 5.078561 34.276823 -0.781249
2003-06-25 08:18:02 51°18.16 2°36.76 36.761794 5.078561 34.279414 -0.814958
2003-06-25 08:19:02 51°17.99 2°37.02 35.916331 5.07835 34.279887 -0.74754
2003-06-25 08:20:02 51°17.78 2°37.02 36.459319 5.078139 34.279841 -0.74754
2003-06-25 08:21:02 51°17.59 2°36.83 39.589207 5.077928 34.278758 -0.74754
2003-06-25 08:22:00 51°17.42 2°36.64 38.908152 5.077823 34.278994 -0.74754
2003-06-25 08:23:00 51°17.24 2°36.43 38.377932 5.077717 34.280785 -0.814958
2003-06-25 08:24:04 51°17.05 2°36.21 38.218903 5.077823 34.281586 -0.814958
2003-06-25 08:25:04 51°16.87 2°36 36.534965 5.077611 34.28154 -0.781249
2003-06-25 08:26:04 51°16.69 2°35.79 37.336515 5.0774 34.280976 -0.814958
2003-06-25 08:27:04 51°16.52 2°35.58 37.475825 5.077295 34.282249 -0.781249
2003-06-25 08:28:04 51°16.34 2°35.37 37.89352 5.077189 34.282486 -0.781249
2003-06-25 08:29:04 51°16.17 2°35.15 36.95998 5.077189 34.282486 -0.814958
2003-06-25 08:30:04 51°16.01 2°34.91 37.358444 5.076873 34.281639 -0.781249
2003-06-25 08:31:04 51°15.92 2°34.61 34.662887 5.076662 34.282112 -0.781249
2003-06-25 08:32:04 51°16 2°34.28 37.018195 5.076767 34.283431 -0.781249
2003-06-25 08:33:08 51°16.11 2°33.95 35.723878 5.076662 34.284187 -0.74754
2003-06-25 08:34:08 51°16.21 2°33.65 35.078693 5.076556 34.283386 -0.781249
2003-06-25 08:35:08 51°16.32 2°33.35 35.811195 5.076556 34.284423 -0.74754
2003-06-25 08:36:08 51°16.44 2°33.06 35.408855 5.076345 34.28334 -0.74754
2003-06-25 08:37:08 51°16.43 2°32.75 36.035529 5.076451 34.286216 -0.814958
2003-06-25 08:38:08 51°16.28 2°32.51 35.923752 5.076239 34.285133 -0.74754
2003-06-25 08:39:08 51°16.13 2°32.27 34.117069 5.076556 34.287536 -0.781249
2003-06-25 08:40:08 51°15.98 2°32.02 38.120033 5.076451 34.286216 -0.781249
2003-06-25 08:41:08 51°15.83 2°31.78 35.431356 5.076556 34.287017 -0.781249
2003-06-25 08:42:08 51°15.68 2°31.53 38.865848 5.076345 34.288009 -0.781249
2003-06-25 08:43:08 51°15.53 2°31.29 34.898456 5.076345 34.288009 -0.781249
2003-06-25 08:44:08 51°15.38 2°31.04 35.980934 5.076345 34.289566 -0.781249
2003-06-25 08:45:08 51°15.23 2°30.79 34.148569 5.076345 34.290604 -0.781249
2003-06-25 08:46:08 51°15.08 2°30.55 35.719126 5.07624 34.289284 -0.781249
2003-06-25 08:47:08 51°14.93 2°30.31 36.635163 5.076345 34.290604 -0.781249
2003-06-25 08:48:08 51°14.78 2°30.06 35.542517 5.07624 34.291878 -0.814958
2003-06-25 08:49:08 51°14.64 2°29.81 34.193123 5.076451 34.292962 -0.781249
2003-06-25 08:50:08 51°14.49 2°29.56 37.572833 5.076451 34.292962 -0.74754
2003-06-25 08:51:08 51°14.34 2°29.32 37.06 5.07624 34.292397 -0.74754
2003-06-25 08:52:08 51°14.19 2°29.07 34.670094 5.076451 34.294 -0.814958
2003-06-25 08:53:08 51°14.04 2°28.82 37.414958 5.076556 34.295839 -0.74754
2003-06-25 08:54:08 51°13.89 2°28.57 38.322282 5.076451 34.294519 -0.781249
2003-06-25 08:55:08 51°13.74 2°28.32 37.859837 5.076451 34.295038 -0.781249
2003-06-25 08:56:08 51°13.6 2°28.07 38.889601 5.076345 34.295275 -0.781249
2003-06-25 08:57:08 51°13.45 2°27.82 39.187154 5.07624 34.296031 -0.781249
2003-06-25 08:58:08 51°13.3 2°27.57 39.939579 5.076451 34.296076 -0.781249
2003-06-25 08:59:08 51°13.16 2°27.33 37.747395 5.076451 34.297114 -0.781249
2003-06-25 09:00:08 51°13.01 2°27.08 37.296268 5.07624 34.295512 -0.814958
2003-06-25 09:01:08 51°12.87 2°26.84 37.982348 5.076451 34.297633 -0.781249
2003-06-25 09:02:08 51°12.69 2°26.68 37.610253 5.076767 34.29796 -0.781249
2003-06-25 09:03:08 51°12.49 2°26.57 37.402382 5.076662 34.297678 -0.74754
2003-06-25 09:04:08 51°12.28 2°26.47 37.605804 5.076662 34.298197 -0.781249
2003-06-25 09:05:08 51°12.09 2°26.35 37.823874 5.076873 34.2998 -0.74754
2003-06-25 09:06:08 51°11.89 2°26.23 39.792746 5.077084 34.300363 -0.74754
2003-06-25 09:07:08 51°11.69 2°26.12 39.03361 5.077084 34.300363 -0.74754
2003-06-25 09:08:08 51°11.51 2°25.98 39.120627 5.077084 34.30296 -0.781249
2003-06-25 09:09:08 51°11.32 2°26.15 39.273506 5.077295 34.303523 -0.781249
2003-06-25 09:10:08 51°11.21 2°26.48 39.8914 5.077295 34.303523 -0.781249
2003-06-25 09:11:08 51°11.22 2°26.87 39.067655 5.077718 34.30569 -0.781249
2003-06-25 09:12:08 51°11.23 2°27.26 39.738963 5.077718 34.307247 -0.781249
2003-06-25 09:13:08 51°11.24 2°27.65 39.181223 5.077612 34.305408 -0.781249
2003-06-25 09:14:08 51°11.25 2°28.04 40.76578 5.077823 34.305452 -0.781249
2003-06-25 09:15:08 51°11.27 2°28.43 38.646763 5.077823 34.307529 -0.814958
2003-06-25 09:16:08 51°11.38 2°28.77 37.766242 5.078245 34.308657 -0.781249
2003-06-25 09:17:08 51°11.53 2°29.09 38.178079 5.078351 34.309977 -0.781249
2003-06-25 09:18:08 51°11.67 2°29.42 37.817139 5.078245 34.308657 -0.781249
2003-06-25 09:19:08 51°11.81 2°29.75 37.72081 5.078351 34.309458 -0.814958
2003-06-25 09:20:08 51°11.95 2°30.07 38.46094 5.078562 34.310022 -0.781249
2003-06-25 09:21:08 51°12.11 2°30.37 38.304136 5.078668 34.310303 -0.74754
2003-06-25 09:22:08 51°12.26 2°30.68 38.594618 5.078562 34.309502 -0.781249
2003-06-25 09:23:08 51°12.41 2°30.98 36.702259 5.078668 34.309784 -0.781249
2003-06-25 09:24:08 51°12.56 2°31.29 39.32744 5.07909 34.31195 -0.74754
2003-06-25 09:25:08 51°12.69 2°31.63 35.99746 5.079301 34.313033 -0.781249
2003-06-25 09:26:08 51°12.8 2°31.98 38.814128 5.079406 34.312795 -0.74754
2003-06-25 09:27:08 51°12.88 2°32.35 39.503473 5.079512 34.313597 -0.74754
2003-06-25 09:28:08 51°12.96 2°32.72 39.848703 5.079512 34.312039 -0.781249
2003-06-25 09:29:08 51°13.05 2°33.09 38.823585 5.080356 34.31637 -0.781249
2003-06-25 09:30:08 51°13.14 2°33.45 39.018013 5.080356 34.315851 -0.781249
2003-06-25 09:31:08 51°13.22 2°33.81 38.187707 5.080356 34.315332 -0.781249
2003-06-25 09:32:08 51°13.3 2°34.17 38.866352 5.080884 34.318298 -0.781249
2003-06-25 09:33:08 51°13.39 2°34.54 38.035623 5.08099 34.31858 -0.781249
2003-06-25 09:34:08 51°13.47 2°34.9 38.897665 5.081306 34.319944 -0.781249
2003-06-25 09:35:08 51°13.55 2°35.26 37.201433 5.081412 34.319187 -0.74754
2003-06-25 09:36:08 51°13.64 2°35.62 37.60974 5.081623 34.320789 -0.781249
2003-06-25 09:37:08 51°13.72 2°35.99 38.024417 5.081729 34.320552 -0.781249
2003-06-25 09:38:08 51°13.8 2°36.36 37.348491 5.082362 34.32328 -0.814958
2003-06-25 09:39:08 51°13.89 2°36.72 37.851861 5.08194 34.319558 -0.781249
2003-06-25 09:40:08 51°13.97 2°37.09 38.37508 5.082468 34.322524 -0.781249
2003-06-25 09:41:08 51°14.05 2°37.46 37.103812 5.082784 34.323888 -0.781249
2003-06-25 09:42:08 51°14.14 2°37.83 38.560436 5.083206 34.325533 -0.781249
2003-06-25 09:43:08 51°14.18 2°38.21 37.189916 5.083629 34.326141 -0.781249
2003-06-25 09:44:08 51°14.13 2°38.58 38.41989 5.083734 34.327461 -0.781249
2003-06-25 09:45:08 51°13.99 2°38.86 36.34183 5.083734 34.325384 -0.74754
2003-06-25 09:46:08 51°13.78 2°38.84 37.73225 5.084156 34.329625 -0.781249
2003-06-25 09:47:08 51°13.59 2°38.68 38.17363 5.084579 34.329194 -0.781249
2003-06-25 09:48:08 51°13.39 2°38.51 37.402703 5.084684 34.328438 -0.74754
2003-06-25 09:49:08 51°13.2 2°38.35 38.420556 5.084895 34.327963 -0.781249
2003-06-25 09:50:08 51°13 2°38.19 37.825725 5.085212 34.330884 -0.781249
2003-06-25 09:51:08 51°12.81 2°38.01 37.386016 5.08574 34.332291 -0.74754
2003-06-25 09:52:08 51°12.63 2°37.83 36.474837 5.08574 34.331772 -0.74754
2003-06-25 09:53:08 51°12.44 2°37.64 36.721224 5.086056 34.332617 -0.781249
2003-06-25 09:54:08 51°12.25 2°37.45 37.517039 5.086373 34.333981 -0.781249
2003-06-25 09:55:08 51°12.07 2°37.27 37.622861 5.08669 34.335863 -0.781249
2003-06-25 09:56:08 51°11.88 2°37.09 37.817394 5.086795 34.335626 -0.781249
2003-06-25 09:57:08 51°11.69 2°36.91 37.268857 5.087006 34.337226 -0.781249
2003-06-25 09:58:08 51°11.51 2°36.72 36.853018 5.087112 34.335432 -0.74754
2003-06-25 09:59:08 51°11.32 2°36.54 35.064848 5.087429 34.337314 -0.74754
2003-06-25 10:00:08 51°11.13 2°36.36 35.969174 5.08764 34.337877 -0.781249
2003-06-25 10:01:08 51°10.95 2°36.17 36.072927 5.08764 34.337358 -0.781249
2003-06-25 10:02:08 51°10.76 2°36 37.009909 5.088167 34.339803 -0.781249
2003-06-25 10:03:08 51°10.55 2°35.89 36.641512 5.088484 34.340648 -0.781249
2003-06-25 10:04:08 51°10.34 2°35.79 36.758883 5.08859 34.341967 -0.781249
2003-06-25 10:05:08 51°10.13 2°35.72 36.816534 5.088906 34.341773 -0.781249
2003-06-25 10:06:08 51°9.91 2°35.66 36.539733 5.089012 34.343612 -0.781249
2003-06-25 10:07:08 51°9.72 2°35.82 37.374751 5.089329 34.344975 -0.781249
2003-06-25 10:08:08 51°9.65 2°36.17 37.719148 5.089856 34.3469 -0.781249
2003-06-25 10:09:08 51°9.72 2°36.53 38.27199 5.090068 34.347463 -0.781249
2003-06-25 10:10:08 51°9.79 2°36.89 37.332147 5.090279 34.347507 -0.74754
2003-06-25 10:11:08 51°9.85 2°37.25 37.026029 5.090384 34.34675 -0.781249
2003-06-25 10:12:08 51°9.92 2°37.61 36.68154 5.09049 34.345994 -0.74754
2003-06-25 10:13:08 51°9.99 2°37.97 36.948074 5.090912 34.348157 -0.781249
2003-06-25 10:14:08 51°10.06 2°38.34 38.088767 5.091017 34.348957 -0.781249
2003-06-25 10:15:08 51°10.12 2°38.7 37.384989 5.09144 34.349045 -0.781249
2003-06-25 10:16:08 51°10.19 2°39.06 37.205196 5.091651 34.349607 -0.781249
2003-06-25 10:17:08 51°10.26 2°39.43 37.78914 5.091862 34.348613 -0.781249
2003-06-25 10:18:08 51°10.32 2°39.79 38.226112 5.092284 34.350257 -0.781249
2003-06-25 10:19:08 51°10.39 2°40.16 36.341602 5.092601 34.351101 -0.814958
2003-06-25 10:20:08 51°10.45 2°40.52 37.571488 5.093129 34.353026 -0.781249
2003-06-25 10:21:08 51°10.51 2°40.88 37.412616 5.09334 34.352551 -0.781249
2003-06-25 10:22:08 51°10.58 2°41.24 37.974352 5.093762 34.354195 -0.814958
2003-06-25 10:23:08 51°10.64 2°41.6 38.885633 5.094079 34.35452 -0.781249
2003-06-25 10:24:08 51°10.72 2°41.96 38.030561 5.094395 34.354845 -0.781249
2003-06-25 10:25:08 51°10.79 2°42.32 37.065864 5.094606 34.355407 -0.781249
2003-06-25 10:26:08 51°10.86 2°42.67 38.771081 5.094923 34.355214 -0.781249
2003-06-25 10:27:08 51°10.93 2°43.03 37.833002 5.095345 34.356857 -0.71383
2003-06-25 10:28:08 51°11 2°43.38 37.058131 5.095556 34.355345 -0.74754
2003-06-25 10:29:08 51°11.07 2°43.74 35.757755 5.09619 34.357551 -0.781249
2003-06-25 10:30:08 51°11.14 2°44.09 36.192737 5.096401 34.358113 -0.74754
2003-06-25 10:31:08 51°11.22 2°44.44 36.361109 5.096717 34.358957 -0.781249
2003-06-25 10:32:08 51°11.3 2°44.79 37.617805 5.097351 34.361162 -0.74754
2003-06-25 10:33:08 51°11.38 2°45.14 38.294332 5.097562 34.360687 -0.814958
2003-06-25 10:34:08 51°11.47 2°45.48 36.475421 5.09809 34.361574 -0.74754
2003-06-25 10:35:08 51°11.56 2°45.83 37.620077 5.098512 34.363217 -0.781249
2003-06-25 10:36:08 51°11.65 2°46.17 38.879395 5.098512 34.361662 -0.74754
2003-06-25 10:37:08 51°11.74 2°46.51 37.898622 5.098828 34.361987 -0.781249
2003-06-25 10:38:08 51°11.83 2°46.86 35.000186 5.099567 34.364473 -0.781249
2003-06-25 10:39:08 51°11.92 2°47.2 37.976199 5.099884 34.364798 -0.74754
2003-06-25 10:40:08 51°12.03 2°47.52 38.607199 5.100201 34.365123 -0.814958
2003-06-25 10:41:08 51°12.15 2°47.85 38.649985 5.100728 34.366528 -0.781249
2003-06-25 10:42:08 51°12.26 2°48.18 38.403477 5.101151 34.367134 -0.781249
2003-06-25 10:43:08 51°12.37 2°48.5 37.976454 5.101678 34.368539 -0.814958
2003-06-25 10:44:08 51°12.48 2°48.83 37.935253 5.101889 34.367547 -0.74754
2003-06-25 10:45:08 51°12.59 2°49.16 39.175228 5.102312 34.367635 -0.814958
2003-06-25 10:46:08 51°12.71 2°49.48 38.150047 5.103051 34.371155 -0.781249
2003-06-25 10:47:10 51°12.83 2°49.82 38.800917 5.103473 34.371243 -0.74754
2003-06-25 10:48:08 51°12.94 2°50.13 38.104958 5.103789 34.372086 -0.74754
2003-06-25 10:49:08 51°13.06 2°50.45 38.814033 5.103895 34.370296 -0.814958
2003-06-25 10:50:08 51°13.18 2°50.77 38.925155 5.104634 34.373298 -0.74754
2003-06-25 10:51:10 51°13.29 2°51.11 38.102318 5.10495 34.373623 -0.781249
2003-06-25 10:52:08 51°13.4 2°51.43 38.284145 5.105373 34.373711 -0.74754
2003-06-25 10:53:08 51°13.51 2°51.75 36.629267 5.105795 34.374317 -0.74754
2003-06-25 10:54:08 51°13.62 2°52.08 38.091694 5.106428 34.376519 -0.781249
2003-06-25 10:55:08 51°13.73 2°52.41 37.655779 5.106956 34.376888 -0.781249
2003-06-25 10:56:08 51°13.84 2°52.73 38.203688 5.106956 34.375336 -0.781249
2003-06-25 10:57:08 51°13.96 2°53.05 38.523298 5.107695 34.377819 -0.781249
2003-06-25 10:58:10 51°14.07 2°53.39 37.439304 5.108117 34.377908 -0.781249
2003-06-25 10:59:08 51°14.19 2°53.69 34.277683 5.10875 34.381662 -0.781249
2003-06-25 11:00:08 51°14.32 2°53.99 35.962314 5.109278 34.381514 -0.74754
2003-06-25 11:01:08 51°14.4 2°54.33 34.924844 5.109278 34.381514 -0.74754
2003-06-25 11:02:10 51°14.4 2°54.69 36.975497 5.110123 34.384277 -0.74754
2003-06-25 11:03:08 51°14.36 2°54.97 36.529969 5.110228 34.381971 -0.74754